createdAt,value
2023-03-10T00:08:26.741Z,2293.54932
2023-03-10T00:23:29.712Z,1928.95227
2023-03-10T00:38:31.978Z,1655.05542
2023-03-10T00:53:34.340Z,1416.1814
2023-03-10T01:08:36.755Z,974.35437
2023-03-10T01:23:39.074Z,608.85925
2023-03-10T01:38:41.372Z,197.56494
2023-03-10T01:53:43.932Z,49.39124
2023-03-10T02:08:46.273Z,3.59209
2023-03-10T02:24:00.392Z,0
2023-03-10T02:39:03.526Z,0
2023-03-10T02:54:05.920Z,0
2023-03-10T03:09:08.144Z,0
2023-03-10T03:24:10.334Z,0
2023-03-10T03:39:12.575Z,0
2023-03-10T03:54:14.764Z,0
2023-03-10T04:09:17.283Z,0
2023-03-10T04:24:19.501Z,0
2023-03-10T04:39:21.953Z,0
2023-03-10T04:54:24.219Z,0
2023-03-10T05:09:26.463Z,0
2023-03-10T05:24:28.765Z,0
2023-03-10T05:39:31.032Z,0
2023-03-10T05:54:33.331Z,0
2023-03-10T06:09:35.576Z,0
2023-03-10T06:24:37.817Z,0
2023-03-10T06:39:40.181Z,0
2023-03-10T06:54:42.413Z,0
2023-03-10T07:09:44.634Z,0
2023-03-10T07:24:46.906Z,0
2023-03-10T07:39:49.322Z,0
2023-03-10T07:54:51.585Z,0
2023-03-10T08:09:53.884Z,0
2023-03-10T08:24:56.129Z,0
2023-03-10T08:39:58.485Z,0
2023-03-10T08:55:00.738Z,0
2023-03-10T09:10:02.977Z,0
2023-03-10T09:25:05.235Z,0
2023-03-10T09:40:07.709Z,0
2023-03-10T09:55:11.643Z,0
2023-03-10T10:10:15.231Z,0
2023-03-10T10:25:17.507Z,0
2023-03-10T10:40:19.733Z,0
2023-03-10T10:55:22.048Z,0
2023-03-10T11:10:24.423Z,0
2023-03-10T11:25:26.745Z,0
2023-03-10T11:40:28.971Z,0
2023-03-10T11:55:31.188Z,0
2023-03-10T12:10:33.469Z,0
2023-03-10T12:25:35.925Z,0
2023-03-10T12:40:38.120Z,0
2023-03-10T12:55:40.382Z,0
2023-03-10T13:10:42.590Z,0
2023-03-10T13:25:44.826Z,0
2023-03-10T13:40:47.055Z,0
2023-03-10T13:55:49.580Z,1.79604
2023-03-10T14:10:51.876Z,18.85847
2023-03-10T14:25:54.082Z,77.22993
2023-03-10T14:40:56.389Z,158.94998
2023-03-10T14:55:58.641Z,263.12057
2023-03-10T15:11:00.903Z,434.64288
2023-03-10T15:26:03.130Z,573.83636
2023-03-10T15:41:05.395Z,656.45441
2023-03-10T15:56:07.677Z,1026.4397
2023-03-10T16:11:09.911Z,1213.22839
2023-03-10T16:26:12.139Z,1939.72852
2023-03-10T16:41:14.368Z,2265.71069
2023-03-10T16:56:16.645Z,3060.46069
2023-03-10T17:11:19.004Z,3637.88892
2023-03-10T17:26:21.231Z,3685.48413
2023-03-10T17:41:23.421Z,4286.26123
2023-03-10T17:56:25.701Z,4235.07422
2023-03-10T18:11:27.988Z,3816.59546
2023-03-10T18:26:30.593Z,3428.6499
2023-03-10T18:41:32.995Z,3507.67578
2023-03-10T18:56:35.436Z,4291.64941
2023-03-10T19:11:37.766Z,4884.34424
2023-03-10T19:26:40.082Z,5390.8291
2023-03-10T19:41:42.363Z,6079.6123
2023-03-10T19:56:44.555Z,6748.63867
2023-03-10T20:11:46.793Z,6482.82422
2023-03-10T20:26:49.085Z,7370.07031
2023-03-10T20:41:51.336Z,7111.43994
2023-03-10T20:56:53.747Z,7842.43018
2023-03-10T21:11:56.047Z,11472.2373
2023-03-10T21:26:58.328Z,12822.86328
2023-03-10T21:42:00.600Z,11828.75195
2023-03-10T21:57:03.225Z,12601.94922
2023-03-10T22:12:05.493Z,9338.53613
2023-03-10T22:27:07.691Z,6368.77539
2023-03-10T22:42:09.912Z,4543.99365
2023-03-10T22:57:12.182Z,4061.75562
2023-03-10T23:12:14.572Z,4617.63135
2023-03-10T23:27:16.841Z,3458.28442
2023-03-10T23:42:19.242Z,2549.48584
2023-03-10T23:57:21.592Z,2107.65869
